createdAt,value
2022-09-22T00:01:39.285Z,9.45
2022-09-22T00:04:10.082Z,9.38
2022-09-22T00:06:41.020Z,9.37
2022-09-22T00:09:12.944Z,9.38
2022-09-22T00:11:44.035Z,9.39
2022-09-22T00:14:15.455Z,9.38
2022-09-22T00:16:47.857Z,9.36
2022-09-22T00:19:20.066Z,9.32
2022-09-22T00:21:48.962Z,9.30
2022-09-22T00:24:18.521Z,9.27
2022-09-22T00:26:46.935Z,9.24
2022-09-22T00:29:17.067Z,9.20
2022-09-22T00:31:46.851Z,9.18
2022-09-22T00:34:18.318Z,9.14
2022-09-22T00:36:47.482Z,9.11
2022-09-22T00:39:17.754Z,9.08
2022-09-22T00:41:49.721Z,9.05
2022-09-22T00:44:42.670Z,9.01
2022-09-22T00:47:22.701Z,8.99
2022-09-22T00:49:55.124Z,8.96
2022-09-22T00:52:28.622Z,8.97
2022-09-22T00:54:59.645Z,8.96
2022-09-22T00:57:32.233Z,8.91
2022-09-22T01:00:02.594Z,8.92
2022-09-22T01:02:33.466Z,8.91
2022-09-22T01:05:01.735Z,8.90
2022-09-22T01:07:31.555Z,8.88
2022-09-22T01:09:59.928Z,8.86
2022-09-22T01:12:30.871Z,8.85
2022-09-22T01:15:22.659Z,8.83
2022-09-22T01:18:15.354Z,8.81
2022-09-22T01:21:26.151Z,8.76
2022-09-22T01:24:34.678Z,8.74
2022-09-22T01:27:32.461Z,8.74
2022-09-22T01:30:22.479Z,8.74
2022-09-22T01:33:06.283Z,8.76
2022-09-22T01:35:45.967Z,8.76
2022-09-22T01:38:19.953Z,8.76
2022-09-22T01:40:52.601Z,8.75
2022-09-22T01:43:33.035Z,8.72
2022-09-22T01:46:08.205Z,8.70
2022-09-22T01:48:38.360Z,8.68
2022-09-22T01:51:14.048Z,8.66
2022-09-22T01:53:47.903Z,8.64
2022-09-22T01:56:19.512Z,8.62
2022-09-22T01:58:51.136Z,8.61
2022-09-22T02:01:24.193Z,8.59
2022-09-22T02:04:01.751Z,8.54
2022-09-22T02:06:37.373Z,8.51
2022-09-22T02:09:11.031Z,8.50
2022-09-22T02:11:39.808Z,8.46
2022-09-22T02:14:08.741Z,8.43
2022-09-22T02:16:38.677Z,8.39
2022-09-22T02:19:13.481Z,8.38
2022-09-22T02:21:45.918Z,8.33
2022-09-22T02:24:32.192Z,8.30
2022-09-22T02:27:03.931Z,8.26
2022-09-22T02:29:36.117Z,8.24
2022-09-22T02:32:10.732Z,8.22
2022-09-22T02:34:39.589Z,8.18
2022-09-22T02:37:18.975Z,8.17
2022-09-22T02:39:57.920Z,8.12
2022-09-22T02:42:30.568Z,8.11
2022-09-22T02:45:06.981Z,8.10
2022-09-22T02:47:42.264Z,8.09
2022-09-22T02:50:13.317Z,8.07
2022-09-22T02:52:42.166Z,8.04
2022-09-22T02:55:12.242Z,8.01
2022-09-22T02:57:40.505Z,7.98
2022-09-22T03:00:10.018Z,7.96
2022-09-22T03:02:39.678Z,7.94
2022-09-22T03:05:08.867Z,7.92
2022-09-22T03:07:37.112Z,7.89
2022-09-22T03:10:06.701Z,7.88
2022-09-22T03:12:34.937Z,7.86
2022-09-22T03:15:03.114Z,7.85
2022-09-22T03:17:32.877Z,7.86
2022-09-22T03:20:02.732Z,7.86
2022-09-22T03:22:30.818Z,7.85
2022-09-22T03:24:59.293Z,7.81
2022-09-22T03:27:27.597Z,7.77
2022-09-22T03:29:55.844Z,7.74
2022-09-22T03:32:23.986Z,7.72
2022-09-22T03:34:52.109Z,7.70
2022-09-22T03:37:21.662Z,7.68
2022-09-22T03:39:49.851Z,7.67
2022-09-22T03:42:18.340Z,7.67
2022-09-22T03:44:46.633Z,7.66
2022-09-22T03:47:14.733Z,7.67
2022-09-22T03:49:43.015Z,7.66
2022-09-22T03:52:11.395Z,7.65
2022-09-22T03:54:40.844Z,7.64
2022-09-22T03:57:09.104Z,7.63
2022-09-22T03:59:37.233Z,7.61
2022-09-22T04:02:05.481Z,7.59
2022-09-22T04:04:33.752Z,7.58
2022-09-22T04:07:07.458Z,7.56
2022-09-22T04:09:35.947Z,7.53
2022-09-22T04:12:06.494Z,7.51
2022-09-22T04:14:34.630Z,7.47
2022-09-22T04:17:05.223Z,7.43
2022-09-22T04:19:35.785Z,7.42
2022-09-22T04:22:04.302Z,7.40
2022-09-22T04:24:33.779Z,7.36
2022-09-22T04:27:19.092Z,7.36
2022-09-22T04:29:48.983Z,7.34
2022-09-22T04:32:17.242Z,7.32
2022-09-22T04:34:45.529Z,7.31
2022-09-22T04:37:13.832Z,7.29
2022-09-22T04:39:42.644Z,7.27
2022-09-22T04:42:10.908Z,7.25
2022-09-22T04:44:39.059Z,7.25
2022-09-22T04:47:08.765Z,7.25
2022-09-22T04:49:36.870Z,7.23
2022-09-22T04:52:05.844Z,7.23
2022-09-22T04:54:33.994Z,7.23
2022-09-22T04:57:02.857Z,7.23
2022-09-22T04:59:30.986Z,7.23
2022-09-22T05:02:00.156Z,7.23
2022-09-22T05:04:29.889Z,7.23
2022-09-22T05:06:59.463Z,7.24
2022-09-22T05:09:28.160Z,7.21
2022-09-22T05:11:59.581Z,7.20
2022-09-22T05:14:28.199Z,7.20
2022-09-22T05:16:56.510Z,7.20
2022-09-22T05:19:24.958Z,7.20
2022-09-22T05:21:55.039Z,7.21
2022-09-22T05:24:23.218Z,7.22
2022-09-22T05:26:51.614Z,7.27
2022-09-22T05:29:20.552Z,7.31
2022-09-22T05:31:50.817Z,7.31
2022-09-22T05:34:19.168Z,7.40
2022-09-22T05:36:47.495Z,7.43
2022-09-22T05:39:16.981Z,7.49
2022-09-22T05:41:45.076Z,7.57
2022-09-22T05:44:13.238Z,7.62
2022-09-22T05:46:41.302Z,7.67
2022-09-22T05:49:09.543Z,7.72
2022-09-22T05:51:37.650Z,7.78
2022-09-22T05:54:06.118Z,7.85
2022-09-22T05:56:35.711Z,7.90
2022-09-22T05:59:03.881Z,7.94
2022-09-22T06:01:32.062Z,7.99
2022-09-22T06:04:00.263Z,8.01
2022-09-22T06:06:28.378Z,8.05
2022-09-22T06:08:56.706Z,8.10
2022-09-22T06:11:24.853Z,8.17
2022-09-22T06:13:54.316Z,8.23
2022-09-22T06:16:22.472Z,8.29
2022-09-22T06:18:50.694Z,8.39
2022-09-22T06:21:18.858Z,8.48
2022-09-22T06:23:46.987Z,8.56
2022-09-22T06:26:15.134Z,8.65
2022-09-22T06:28:43.230Z,8.75
2022-09-22T06:31:15.117Z,8.84
2022-09-22T06:33:48.192Z,8.93
2022-09-22T06:36:23.953Z,9.03
2022-09-22T06:38:54.125Z,9.11
2022-09-22T06:41:22.397Z,9.20
2022-09-22T06:43:52.660Z,9.28
2022-09-22T06:46:24.583Z,9.37
2022-09-22T06:48:54.014Z,9.46
2022-09-22T06:51:22.114Z,9.52
2022-09-22T06:53:52.036Z,9.57
2022-09-22T06:56:20.594Z,9.64
2022-09-22T06:59:08.899Z,9.69
2022-09-22T07:01:39.238Z,9.75
2022-09-22T07:04:07.912Z,9.83
2022-09-22T07:06:37.265Z,9.91
2022-09-22T07:09:06.503Z,10.02
2022-09-22T07:11:39.505Z,10.13
2022-09-22T07:14:09.113Z,10.26
2022-09-22T07:16:40.724Z,10.41
2022-09-22T07:19:09.189Z,10.57
2022-09-22T07:21:37.762Z,10.73
2022-09-22T07:24:08.408Z,10.90
2022-09-22T07:26:39.170Z,11.04
2022-09-22T07:29:13.111Z,11.19
2022-09-22T07:31:43.185Z,11.33
2022-09-22T07:34:12.743Z,11.46
2022-09-22T07:36:40.909Z,11.60
2022-09-22T07:39:11.497Z,11.73
2022-09-22T07:41:42.994Z,11.87
2022-09-22T07:44:30.791Z,12.00
2022-09-22T07:47:01.288Z,12.13
2022-09-22T07:49:29.712Z,12.25
2022-09-22T07:51:58.449Z,12.39
2022-09-22T07:54:28.303Z,12.50
2022-09-22T07:56:58.532Z,12.61
2022-09-22T07:59:27.656Z,12.73
2022-09-22T08:01:56.113Z,12.85
2022-09-22T08:04:26.703Z,12.98
2022-09-22T08:06:56.571Z,13.09
2022-09-22T08:09:25.562Z,13.21
2022-09-22T08:11:54.700Z,13.30
2022-09-22T08:14:24.274Z,13.43
2022-09-22T08:16:53.883Z,13.56
2022-09-22T08:19:25.499Z,13.70
2022-09-22T08:21:55.000Z,13.81
2022-09-22T08:24:23.914Z,13.92
2022-09-22T08:26:55.699Z,14.03
2022-09-22T08:29:24.693Z,14.13
2022-09-22T08:31:54.167Z,14.25
2022-09-22T08:34:23.125Z,14.33
2022-09-22T08:36:52.667Z,14.43
2022-09-22T08:39:20.921Z,14.57
2022-09-22T08:42:05.904Z,14.70
2022-09-22T08:44:41.904Z,14.84
2022-09-22T08:47:38.549Z,14.94
2022-09-22T08:50:42.962Z,15.07
2022-09-22T08:53:17.210Z,15.22
2022-09-22T08:55:51.951Z,15.36
2022-09-22T08:58:32.290Z,15.49
2022-09-22T09:01:18.451Z,15.63
2022-09-22T09:03:57.808Z,15.76
2022-09-22T09:06:36.598Z,15.89
2022-09-22T09:09:38.355Z,16.03
2022-09-22T09:12:35.317Z,16.14
2022-09-22T09:15:34.422Z,16.27
2022-09-22T09:18:17.918Z,16.42
2022-09-22T09:20:48.554Z,16.55
2022-09-22T09:23:19.697Z,16.65
2022-09-22T09:25:52.305Z,16.77
2022-09-22T09:28:28.039Z,16.88
2022-09-22T09:31:04.617Z,16.97
2022-09-22T09:33:43.749Z,17.07
2022-09-22T09:36:18.070Z,17.18
2022-09-22T09:38:51.004Z,17.25
2022-09-22T09:41:24.769Z,17.37
2022-09-22T09:43:55.703Z,17.42
2022-09-22T09:46:40.205Z,17.53
2022-09-22T09:49:14.377Z,17.64
2022-09-22T09:51:46.644Z,17.76
2022-09-22T09:54:18.513Z,17.88
2022-09-22T09:57:10.148Z,17.98
2022-09-22T09:59:57.893Z,18.05
2022-09-22T10:02:29.177Z,18.13
2022-09-22T10:05:00.165Z,18.23
2022-09-22T10:10:33.722Z,18.41
2022-09-22T10:13:29.465Z,18.52
2022-09-22T10:16:22.490Z,18.61
2022-09-22T10:18:53.162Z,18.68
2022-09-22T10:21:23.132Z,18.77
2022-09-22T10:23:52.522Z,18.85
2022-09-22T10:26:26.240Z,18.89
2022-09-22T10:29:19.152Z,18.92
2022-09-22T10:32:17.511Z,18.95
2022-09-22T10:34:48.522Z,19.02
2022-09-22T10:37:19.386Z,19.12
2022-09-22T10:39:50.200Z,19.28
2022-09-22T10:42:34.259Z,19.42
2022-09-22T10:45:10.192Z,19.54
2022-09-22T10:47:57.690Z,19.59
2022-09-22T10:50:59.527Z,19.73
2022-09-22T10:53:51.959Z,19.89
2022-09-22T10:56:30.844Z,20.09
2022-09-22T10:59:42.908Z,20.29
2022-09-22T11:03:04.973Z,20.48
2022-09-22T11:06:02.257Z,20.66
2022-09-22T11:08:58.327Z,20.97
2022-09-22T11:11:50.913Z,21.31
2022-09-22T11:14:36.526Z,21.27
2022-09-22T11:17:21.243Z,21.14
2022-09-22T11:20:23.141Z,20.95
2022-09-22T11:23:16.544Z,20.89
2022-09-22T11:26:04.762Z,20.99
2022-09-22T11:29:01.948Z,21.44
2022-09-22T11:31:43.209Z,21.82
2022-09-22T11:35:13.340Z,22.21
2022-09-22T11:37:53.115Z,22.62
2022-09-22T11:40:34.137Z,22.77
2022-09-22T11:43:21.736Z,22.61
2022-09-22T11:45:57.802Z,22.37
2022-09-22T11:48:44.088Z,22.24
2022-09-22T11:51:35.175Z,22.48
2022-09-22T11:54:49.522Z,23.00
2022-09-22T11:57:23.714Z,23.51
2022-09-22T11:59:56.156Z,23.97
2022-09-22T12:02:32.327Z,24.35
2022-09-22T12:05:04.652Z,24.57
2022-09-22T12:07:44.783Z,24.25
2022-09-22T12:10:22.959Z,23.91
2022-09-22T12:12:51.794Z,23.99
2022-09-22T12:15:29.793Z,23.91
2022-09-22T12:18:10.899Z,23.70
2022-09-22T12:20:55.173Z,23.32
2022-09-22T12:23:40.075Z,23.13
2022-09-22T12:26:12.484Z,23.21
2022-09-22T12:28:43.430Z,23.74
2022-09-22T12:31:14.181Z,23.84
2022-09-22T12:33:49.874Z,23.82
2022-09-22T12:36:20.000Z,24.00
2022-09-22T12:38:48.293Z,23.80
2022-09-22T12:41:21.323Z,23.46
2022-09-22T12:43:49.589Z,23.40
2022-09-22T12:46:27.824Z,23.49
2022-09-22T12:48:56.261Z,23.44
2022-09-22T12:51:34.702Z,23.41
2022-09-22T12:54:39.403Z,23.86
2022-09-22T12:57:28.675Z,25.22
2022-09-22T13:00:08.498Z,26.56
2022-09-22T13:02:44.580Z,27.55
2022-09-22T13:05:36.906Z,27.64
2022-09-22T13:08:05.479Z,26.78
2022-09-22T13:11:00.084Z,25.64
2022-09-22T13:13:42.223Z,24.91
2022-09-22T13:16:35.875Z,24.43
2022-09-22T13:19:09.923Z,24.21
2022-09-22T13:21:41.568Z,24.94
2022-09-22T13:24:27.373Z,26.23
2022-09-22T13:27:05.710Z,27.10
2022-09-22T13:29:36.410Z,27.80
2022-09-22T13:32:21.604Z,28.00
2022-09-22T13:34:49.712Z,27.38
2022-09-22T13:37:22.099Z,26.45
2022-09-22T13:39:54.369Z,25.65
2022-09-22T13:42:31.308Z,25.42
2022-09-22T13:45:06.335Z,26.60
2022-09-22T13:47:36.735Z,27.94
2022-09-22T13:50:08.321Z,29.19
2022-09-22T13:52:39.373Z,29.70
2022-09-22T13:55:13.984Z,30.11
2022-09-22T13:57:43.762Z,30.73
2022-09-22T14:00:26.315Z,31.31
2022-09-22T14:02:57.270Z,31.90
2022-09-22T14:05:28.562Z,32.34
2022-09-22T14:08:12.015Z,32.60
2022-09-22T14:10:43.505Z,32.91
2022-09-22T14:13:40.453Z,33.24
2022-09-22T14:16:21.763Z,33.60
2022-09-22T14:18:54.586Z,33.39
2022-09-22T14:21:23.448Z,33.57
2022-09-22T14:23:52.863Z,33.74
2022-09-22T14:26:36.410Z,33.77
2022-09-22T14:29:19.609Z,33.89
2022-09-22T14:31:53.666Z,34.04
2022-09-22T14:34:27.459Z,33.95
2022-09-22T14:36:56.610Z,33.75
2022-09-22T14:39:33.994Z,33.71
2022-09-22T14:42:11.999Z,33.49
2022-09-22T14:44:46.069Z,33.14
2022-09-22T14:47:26.707Z,32.81
2022-09-22T14:50:19.121Z,32.79
2022-09-22T14:52:56.981Z,32.93
2022-09-22T14:55:34.432Z,32.70
2022-09-22T14:58:13.099Z,32.57
2022-09-22T15:01:11.808Z,32.58
2022-09-22T15:03:44.747Z,32.49
2022-09-22T15:06:15.673Z,32.46
2022-09-22T15:08:49.943Z,32.32
2022-09-22T15:11:18.886Z,31.97
2022-09-22T15:13:50.774Z,31.76
2022-09-22T15:16:46.568Z,31.33
2022-09-22T15:19:16.081Z,30.53
2022-09-22T15:21:48.423Z,30.21
2022-09-22T15:24:21.298Z,29.67
2022-09-22T15:26:49.625Z,29.09
2022-09-22T15:29:17.791Z,28.96
2022-09-22T15:31:46.999Z,29.09
2022-09-22T15:34:16.629Z,29.08
2022-09-22T15:36:49.922Z,29.20
2022-09-22T15:39:21.940Z,29.52
2022-09-22T15:41:50.515Z,29.91
2022-09-22T15:44:18.993Z,30.35
2022-09-22T15:46:51.534Z,30.73
2022-09-22T15:49:26.198Z,31.01
2022-09-22T15:51:55.935Z,31.21
2022-09-22T15:54:26.098Z,31.26
2022-09-22T15:56:56.049Z,31.22
2022-09-22T15:59:28.122Z,31.36
2022-09-22T16:01:57.495Z,31.55
2022-09-22T16:04:34.218Z,31.51
2022-09-22T16:07:05.961Z,31.41
2022-09-22T16:09:34.296Z,31.32
2022-09-22T16:12:03.163Z,31.21
2022-09-22T16:14:31.383Z,31.04
2022-09-22T16:16:59.666Z,30.89
2022-09-22T16:19:31.966Z,30.76
2022-09-22T16:22:00.102Z,30.58
2022-09-22T16:24:29.002Z,30.36
2022-09-22T16:26:57.206Z,30.02
2022-09-22T16:29:25.611Z,29.27
2022-09-22T16:31:54.168Z,28.33
2022-09-22T16:34:22.371Z,27.48
2022-09-22T16:36:52.542Z,26.66
2022-09-22T16:39:20.760Z,25.96
2022-09-22T16:41:48.970Z,25.41
2022-09-22T16:44:17.326Z,24.89
2022-09-22T16:46:45.612Z,24.45
2022-09-22T16:49:17.242Z,24.24
2022-09-22T16:51:49.470Z,24.43
2022-09-22T16:54:20.183Z,24.22
2022-09-22T16:56:50.463Z,23.75
2022-09-22T16:59:21.207Z,23.25
2022-09-22T17:01:51.132Z,22.76
2022-09-22T17:04:19.979Z,22.33
2022-09-22T17:06:48.850Z,21.95
2022-09-22T17:09:19.345Z,21.59
2022-09-22T17:11:49.098Z,21.24
2022-09-22T17:14:21.047Z,20.89
2022-09-22T17:16:52.180Z,20.53
2022-09-22T17:19:22.618Z,20.23
2022-09-22T17:21:54.185Z,19.92
2022-09-22T17:24:25.194Z,19.62
2022-09-22T17:26:55.897Z,19.32
2022-09-22T17:29:26.697Z,19.04
2022-09-22T17:31:57.577Z,18.77
2022-09-22T17:34:26.059Z,18.50
2022-09-22T17:36:55.528Z,18.25
2022-09-22T17:39:27.475Z,17.99
2022-09-22T17:41:56.268Z,17.77
2022-09-22T17:44:28.355Z,17.57
2022-09-22T17:47:14.231Z,17.38
2022-09-22T17:49:59.784Z,17.17
2022-09-22T17:52:46.062Z,16.97
2022-09-22T17:55:22.059Z,16.77
2022-09-22T17:57:52.655Z,16.61
2022-09-22T18:00:22.938Z,16.46
2022-09-22T18:02:54.138Z,16.33
2022-09-22T18:05:26.787Z,16.19
2022-09-22T18:07:58.391Z,16.05
2022-09-22T18:10:32.195Z,15.93
2022-09-22T18:13:01.241Z,15.81
2022-09-22T18:15:29.565Z,15.69
2022-09-22T18:17:58.476Z,15.57
2022-09-22T18:20:27.665Z,15.46
2022-09-22T18:22:57.814Z,15.35
2022-09-22T18:25:28.177Z,15.26
2022-09-22T18:27:57.260Z,15.16
2022-09-22T18:30:25.741Z,15.06
2022-09-22T18:32:54.939Z,14.98
2022-09-22T18:35:24.091Z,14.89
2022-09-22T18:37:52.203Z,14.79
2022-09-22T18:40:20.373Z,14.71
2022-09-22T18:42:50.160Z,14.64
2022-09-22T18:45:19.380Z,14.56
2022-09-22T18:47:47.487Z,14.49
2022-09-22T18:50:16.378Z,14.42
2022-09-22T18:52:45.857Z,14.35
2022-09-22T18:55:17.295Z,14.28
2022-09-22T18:57:47.392Z,14.21
2022-09-22T19:00:21.987Z,14.13
2022-09-22T19:02:50.470Z,14.08
2022-09-22T19:05:19.232Z,14.01
2022-09-22T19:07:48.277Z,13.95
2022-09-22T19:10:21.857Z,13.90
2022-09-22T19:12:50.719Z,13.84
2022-09-22T19:15:20.855Z,13.80
2022-09-22T19:17:50.569Z,13.75
2022-09-22T19:20:23.633Z,13.70
2022-09-22T19:22:52.672Z,13.67
2022-09-22T19:25:22.287Z,13.63
2022-09-22T19:27:54.691Z,13.57
2022-09-22T19:30:28.570Z,13.52
2022-09-22T19:32:57.797Z,13.46
2022-09-22T19:35:26.414Z,13.41
2022-09-22T19:37:54.639Z,13.37
2022-09-22T19:40:25.023Z,13.31
2022-09-22T19:42:54.351Z,13.26
2022-09-22T19:45:25.557Z,13.21
2022-09-22T19:47:56.282Z,13.15
2022-09-22T19:50:24.907Z,13.08
2022-09-22T19:52:53.100Z,13.04
2022-09-22T19:55:21.807Z,12.99
2022-09-22T19:57:53.991Z,12.94
2022-09-22T20:00:26.677Z,12.88
2022-09-22T20:02:58.646Z,12.84
2022-09-22T20:05:31.763Z,12.79
2022-09-22T20:08:01.404Z,12.75
2022-09-22T20:10:31.558Z,12.71
2022-09-22T20:13:00.314Z,12.68
2022-09-22T20:15:29.933Z,12.64
2022-09-22T20:17:58.159Z,12.59
2022-09-22T20:20:26.883Z,12.58
2022-09-22T20:23:00.363Z,12.53
2022-09-22T20:25:32.094Z,12.51
2022-09-22T20:28:00.333Z,12.49
2022-09-22T20:30:30.045Z,12.47
2022-09-22T20:32:59.024Z,12.46
2022-09-22T20:35:27.254Z,12.45
2022-09-22T20:37:59.225Z,12.43
2022-09-22T20:40:28.966Z,12.40
2022-09-22T20:42:57.234Z,12.39
2022-09-22T20:45:25.453Z,12.36
2022-09-22T20:47:56.149Z,12.35
2022-09-22T20:50:24.399Z,12.34
2022-09-22T20:52:52.609Z,12.34
2022-09-22T20:55:22.419Z,12.30
2022-09-22T20:57:50.562Z,12.28
2022-09-22T21:00:18.774Z,12.25
2022-09-22T21:02:47.379Z,12.21
2022-09-22T21:05:17.404Z,12.21
2022-09-22T21:07:45.624Z,12.23
2022-09-22T21:10:31.777Z,12.23
2022-09-22T21:13:00.442Z,12.24
2022-09-22T21:15:30.088Z,12.25
2022-09-22T21:17:58.528Z,12.27
2022-09-22T21:20:28.161Z,12.29
2022-09-22T21:22:56.734Z,12.30
2022-09-22T21:25:25.318Z,12.34
2022-09-22T21:27:53.444Z,12.36
2022-09-22T21:30:21.567Z,12.37
2022-09-22T21:32:49.760Z,12.42
2022-09-22T21:35:18.487Z,12.43
2022-09-22T21:37:48.094Z,12.45
2022-09-22T21:40:17.496Z,12.44
2022-09-22T21:42:45.751Z,12.46
2022-09-22T21:45:14.021Z,12.46
2022-09-22T21:47:42.157Z,12.47
2022-09-22T21:50:11.046Z,12.48
2022-09-22T21:52:39.415Z,12.48
2022-09-22T21:55:10.273Z,12.48
2022-09-22T21:57:38.387Z,12.48
2022-09-22T22:00:09.327Z,12.48
2022-09-22T22:02:57.711Z,12.47
2022-09-22T22:05:26.887Z,12.47
2022-09-22T22:07:55.192Z,12.47
2022-09-22T22:10:24.970Z,12.48
2022-09-22T22:12:53.149Z,12.48
2022-09-22T22:15:21.222Z,12.47
2022-09-22T22:17:49.370Z,12.48
2022-09-22T22:20:17.697Z,12.47
2022-09-22T22:22:46.717Z,12.47
2022-09-22T22:25:18.530Z,12.47
2022-09-22T22:27:48.073Z,12.46
2022-09-22T22:30:18.985Z,12.45
2022-09-22T22:32:47.289Z,12.45
2022-09-22T22:35:15.628Z,12.42
2022-09-22T22:37:45.710Z,12.41
2022-09-22T22:40:13.948Z,12.40
2022-09-22T22:42:42.193Z,12.37
2022-09-22T22:45:12.253Z,12.35
2022-09-22T22:47:40.437Z,12.34
2022-09-22T22:50:10.612Z,12.33
2022-09-22T22:52:40.211Z,12.33
2022-09-22T22:55:10.424Z,12.31
2022-09-22T22:57:38.543Z,12.30
2022-09-22T23:00:08.466Z,12.28
2022-09-22T23:02:38.642Z,12.28
2022-09-22T23:05:08.477Z,12.26
2022-09-22T23:07:36.653Z,12.26
2022-09-22T23:10:08.181Z,12.24
2022-09-22T23:12:39.990Z,12.20
2022-09-22T23:15:10.640Z,12.18
2022-09-22T23:17:40.495Z,12.16
2022-09-22T23:20:10.195Z,12.14
2022-09-22T23:22:38.269Z,12.11
2022-09-22T23:25:07.094Z,12.10
2022-09-22T23:27:35.230Z,12.08
2022-09-22T23:30:03.611Z,12.06
2022-09-22T23:32:31.704Z,12.04
2022-09-22T23:35:01.703Z,12.01
2022-09-22T23:37:29.778Z,12.00
2022-09-22T23:39:58.460Z,11.97
2022-09-22T23:42:26.662Z,11.94
2022-09-22T23:44:54.723Z,11.92
2022-09-22T23:47:22.814Z,11.88
2022-09-22T23:49:50.916Z,11.87
2022-09-22T23:52:22.466Z,11.85
2022-09-22T23:54:50.578Z,11.84
2022-09-22T23:57:18.705Z,11.81
2022-09-22T23:59:46.817Z,11.78
